Time;durP1;ratioP1;P1;durP2;ratioP2;P2;SDS_P1;SDS_P2;PMS_P1;PMS_P2;Temp;Humidity;BMP_temperature;BMP_pressure;BME280_temperature;BME280_humidity;BME280_pressure;Samples;Min_cycle;Max_cycle;Signal;HPM_P1;HPM_P2
2022/05/10 00:01:00;;;;;;;3.17;1.48;;;18.60;99.90;;;;;;5060765;28;20021;-69
2022/05/10 00:03:33;;;;;;;5.65;1.58;;;18.80;99.90;;;;;;5059733;28;20119;-68
2022/05/10 00:06:00;;;;;;;5.28;2.33;;;18.80;99.90;;;;;;5063343;28;20285;-72
2022/05/10 00:08:27;;;;;;;6.18;3.35;;;19.00;99.90;;;;;;5061644;28;20070;-67
2022/05/10 00:10:56;;;;;;;4.80;2.40;;;19.20;99.90;;;;;;5059162;28;20024;-69
2022/05/10 00:13:25;;;;;;;7.72;2.10;;;19.40;99.90;;;;;;5040678;28;20374;-71
2022/05/10 00:15:52;;;;;;;3.88;2.75;;;19.50;99.90;;;;;;5057349;28;20020;-68
2022/05/10 00:18:23;;;;;;;6.63;2.95;;;19.60;99.90;;;;;;5061646;28;20096;-68
2022/05/10 00:20:49;;;;;;;5.82;2.70;;;19.80;99.90;;;;;;5060369;28;20102;-71
2022/05/10 00:23:17;;;;;;;4.77;2.03;;;19.90;99.90;;;;;;4709931;28;10000642;-69
2022/05/10 00:25:43;;;;;;;4.38;2.00;;;20.00;99.90;;;;;;5065820;28;20494;-72
2022/05/10 00:28:11;;;;;;;5.32;2.10;;;20.30;99.90;;;;;;5057285;28;20102;-70
2022/05/10 00:30:38;;;;;;;5.93;2.20;;;20.40;99.90;;;;;;5061196;28;20021;-69
2022/05/10 00:33:06;;;;;;;4.50;2.00;;;20.50;99.90;;;;;;5065426;28;20029;-67
2022/05/10 00:35:34;;;;;;;5.25;2.00;;;20.80;99.90;;;;;;5065882;28;20517;-69
2022/05/10 00:38:03;;;;;;;6.80;3.00;;;20.90;99.90;;;;;;5037558;28;20079;-69
2022/05/10 00:40:35;;;;;;;5.95;2.75;;;21.00;99.90;;;;;;5064238;28;20107;-68
2022/05/10 00:43:10;;;;;;;4.20;2.13;;;21.10;99.90;;;;;;5056202;28;20033;-68
2022/05/10 00:46:01;;;;;;;5.75;2.33;;;21.20;99.90;;;;;;5057157;28;20024;-68
2022/05/10 00:48:46;;;;;;;6.68;1.80;;;21.20;99.90;;;;;;5057578;28;20698;-68
2022/05/10 00:51:31;;;;;;;7.00;2.22;;;21.10;99.90;;;;;;5063728;28;20368;-71
2022/05/10 00:54:22;;;;;;;10.50;2.13;;;21.00;99.90;;;;;;5049555;28;20506;-70
2022/05/10 00:57:11;;;;;;;5.15;1.77;;;21.10;99.90;;;;;;5060183;28;20028;-67
2022/05/10 00:59:40;;;;;;;7.10;2.30;;;21.10;99.90;;;;;;5056252;28;20052;-69
2022/05/10 01:02:19;;;;;;;6.47;1.90;;;21.10;99.90;;;;;;5070192;28;20029;-68
2022/05/10 01:04:54;;;;;;;4.03;1.77;;;21.20;99.90;;;;;;5067512;28;20033;-69
2022/05/10 01:07:40;;;;;;;5.43;1.90;;;21.20;99.90;;;;;;5065101;28;20032;-72
2022/05/10 01:10:17;;;;;;;5.97;2.80;;;21.30;99.90;;;;;;5057367;28;20032;-68
2022/05/10 01:13:20;;;;;;;5.80;2.28;;;21.20;99.90;;;;;;5062904;28;20028;-70
2022/05/10 01:16:11;;;;;;;6.32;3.55;;;21.30;99.90;;;;;;5065355;28;20060;-67
2022/05/10 01:18:39;;;;;;;9.05;3.08;;;21.20;99.90;;;;;;5056110;28;20052;-67
2022/05/10 01:21:36;;;;;;;5.70;1.90;;;21.30;99.90;;;;;;5062958;28;20062;-70
2022/05/10 01:24:30;;;;;;;6.53;1.80;;;21.50;99.90;;;;;;5074754;28;20032;-70
2022/05/10 01:27:15;;;;;;;9.02;2.53;;;21.60;99.90;;;;;;5049974;28;20025;-73
2022/05/10 01:29:58;;;;;;;5.57;1.85;;;21.80;99.90;;;;;;5051695;28;20024;-70
2022/05/10 01:35:19;;;;;;;4.70;1.60;;;22.10;99.90;;;;;;5057565;28;19923;-70
2022/05/10 01:37:51;;;;;;;4.63;1.90;;;22.20;99.90;;;;;;5065689;28;20041;-68
2022/05/10 01:40:27;;;;;;;7.50;2.08;;;22.40;99.90;;;;;;5059828;28;20020;-72
2022/05/10 01:43:24;;;;;;;7.43;1.77;;;22.50;99.90;;;;;;5064287;28;20082;-71
2022/05/10 01:45:57;;;;;;;4.50;1.90;;;22.60;99.90;;;;;;5057411;28;20024;-72
2022/05/10 01:48:24;;;;;;;5.00;1.60;;;22.80;99.90;;;;;;5065089;28;20033;-70
2022/05/10 01:50:56;;;;;;;5.53;1.95;;;23.00;99.90;;;;;;5062254;28;20615;-70
2022/05/10 01:53:36;;;;;;;7.30;2.05;;;23.40;99.90;;;;;;5072784;28;20027;-71
2022/05/10 01:56:21;;;;;;;9.23;1.75;;;23.70;99.90;;;;;;5071410;28;20031;-69
2022/05/10 01:58:49;;;;;;;5.93;1.63;;;23.80;99.90;;;;;;5058950;28;20031;-69
2022/05/10 02:01:27;;;;;;;5.35;1.70;;;23.30;99.90;;;;;;5057516;28;20028;-69
2022/05/10 02:04:15;;;;;;;7.18;1.80;;;23.60;99.90;;;;;;5052581;28;20480;-70
2022/05/10 02:07:13;;;;;;;3.03;1.50;;;23.90;99.90;;;;;;5057061;28;20020;-70
2022/05/10 02:09:48;;;;;;;6.53;1.38;;;23.80;99.90;;;;;;5064402;28;20021;-69
2022/05/10 02:12:20;;;;;;;6.07;1.50;;;24.00;99.90;;;;;;5052911;28;20024;-69
2022/05/10 02:15:01;;;;;;;4.78;1.27;;;23.90;99.90;;;;;;5057831;28;20078;-68
2022/05/10 02:18:04;;;;;;;6.43;1.40;;;24.00;99.90;;;;;;5052353;28;20025;-69
2022/05/10 02:20:36;;;;;;;8.80;1.83;;;24.20;99.90;;;;;;5056873;28;20024;-72
2022/05/10 02:23:27;;;;;;;6.05;1.20;;;24.40;99.90;;;;;;5063114;28;20033;-69
2022/05/10 02:26:17;;;;;;;7.28;1.67;;;24.60;99.90;;;;;;5055104;28;20040;-69
2022/05/10 02:28:51;;;;;;;4.03;1.50;;;24.20;99.40;;;;;;5058403;28;20031;-69
2022/05/10 02:31:31;;;;;;;3.17;1.10;;;24.20;99.90;;;;;;5052342;28;20025;-68
2022/05/10 02:33:59;;;;;;;7.88;1.45;;;24.40;99.70;;;;;;5061952;28;20108;-69
2022/05/10 02:36:26;;;;;;;4.78;1.15;;;24.60;99.50;;;;;;5047774;28;20021;-68
2022/05/10 02:38:53;;;;;;;7.30;2.38;;;24.60;99.40;;;;;;5026480;28;20396;-68
2022/05/10 02:41:23;;;;;;;7.30;2.00;;;24.00;99.90;;;;;;5052675;28;20029;-69
2022/05/10 02:44:01;;;;;;;7.82;2.03;;;24.10;99.90;;;;;;5063335;28;20021;-70
2022/05/10 02:46:28;;;;;;;7.03;1.65;;;24.00;99.90;;;;;;5055687;28;20028;-72
2022/05/10 02:48:55;;;;;;;5.82;1.40;;;24.00;99.90;;;;;;5054540;28;20363;-68
2022/05/10 02:51:22;;;;;;;3.95;1.17;;;23.70;99.90;;;;;;5055310;28;20100;-70
2022/05/10 02:53:49;;;;;;;7.90;1.75;;;23.60;99.90;;;;;;5051570;28;20036;-70
2022/05/10 02:56:21;;;;;;;5.32;1.40;;;23.30;99.90;;;;;;5056659;28;20360;-71
2022/05/10 02:59:03;;;;;;;5.50;1.37;;;23.10;99.90;;;;;;5062816;28;20032;-71
2022/05/10 03:02:04;;;;;;;6.13;1.45;;;22.90;99.90;;;;;;5052808;28;20297;-70
2022/05/10 03:04:36;;;;;;;3.95;1.50;;;22.80;99.90;;;;;;5055822;28;20114;-69
2022/05/10 03:07:05;;;;;;;11.13;1.98;;;22.70;99.90;;;;;;5056263;28;20120;-70
2022/05/10 03:09:32;;;;;;;6.45;1.98;;;22.70;99.90;;;;;;5037383;28;20025;-67
2022/05/10 03:12:02;;;;;;;7.20;1.95;;;22.60;99.90;;;;;;5056902;28;20033;-68
2022/05/10 03:14:30;;;;;;;6.43;1.88;;;22.50;99.90;;;;;;5057375;28;20020;-69
2022/05/10 03:16:56;;;;;;;5.00;1.63;;;22.30;99.90;;;;;;5052658;28;20024;-69
2022/05/10 03:19:23;;;;;;;4.88;1.80;;;22.20;99.90;;;;;;5058812;28;20471;-68
2022/05/10 03:21:50;;;;;;;6.80;1.90;;;22.20;99.90;;;;;;5051986;28;20163;-67
2022/05/10 03:24:17;;;;;;;9.00;1.98;;;22.20;99.90;;;;;;5054938;28;20033;-69
2022/05/10 03:26:52;;;;;;;9.52;1.60;;;22.20;99.90;;;;;;5051322;28;20127;-67
2022/05/10 03:29:25;;;;;;;5.85;1.60;;;22.00;99.90;;;;;;5054852;28;20111;-67
2022/05/10 03:31:53;;;;;;;6.43;1.92;;;21.70;99.90;;;;;;5058052;28;20024;-67
2022/05/10 03:37:05;;;;;;;7.10;1.63;;;21.70;99.90;;;;;;5055767;28;20393;-69
2022/05/10 03:39:32;;;;;;;5.25;1.50;;;21.60;99.90;;;;;;5054880;28;20033;-70
2022/05/10 03:41:59;;;;;;;9.35;1.50;;;21.40;99.90;;;;;;5056522;28;20448;-67
2022/05/10 03:44:26;;;;;;;7.07;1.98;;;21.20;99.90;;;;;;5050316;28;20017;-68
2022/05/10 03:46:53;;;;;;;4.82;1.08;;;21.30;99.90;;;;;;5060712;28;20037;-68
2022/05/10 03:49:20;;;;;;;5.65;1.23;;;21.30;99.90;;;;;;5057208;28;20033;-69
2022/05/10 03:51:47;;;;;;;8.02;1.75;;;21.40;99.90;;;;;;5058044;28;20087;-71
2022/05/10 03:54:14;;;;;;;14.00;3.58;;;21.30;99.90;;;;;;5058075;28;20120;-71
2022/05/10 03:56:41;;;;;;;14.63;7.68;;;21.40;99.90;;;;;;5054674;28;20040;-68
2022/05/10 03:59:08;;;;;;;22.50;11.75;;;21.30;99.90;;;;;;5054266;28;20475;-70
2022/05/10 04:01:35;;;;;;;10.07;4.82;;;21.20;99.90;;;;;;5056693;28;20139;-69
2022/05/10 04:04:02;;;;;;;6.53;2.00;;;21.10;99.90;;;;;;5055754;28;20024;-67
2022/05/10 04:06:30;;;;;;;7.70;3.35;;;20.90;99.90;;;;;;5060341;28;20569;-69
2022/05/10 04:08:57;;;;;;;5.53;2.70;;;20.90;99.90;;;;;;5061400;28;20115;-69
2022/05/10 04:11:25;;;;;;;7.15;2.97;;;20.90;99.90;;;;;;5050366;28;20167;-70
2022/05/10 04:13:52;;;;;;;6.72;1.58;;;20.90;99.90;;;;;;5056749;28;20025;-70
2022/05/10 04:16:19;;;;;;;6.65;1.35;;;21.00;99.90;;;;;;5035631;28;20417;-69
2022/05/10 04:18:46;;;;;;;4.95;1.35;;;21.00;99.90;;;;;;5054950;28;20090;-68
2022/05/10 04:21:13;;;;;;;6.65;1.50;;;21.00;99.90;;;;;;5059427;28;20028;-67
2022/05/10 04:23:40;;;;;;;4.20;1.85;;;21.00;99.90;;;;;;5043370;28;20031;-67
2022/05/10 04:26:10;;;;;;;8.60;1.42;;;20.90;99.90;;;;;;5062596;28;20364;-69
2022/05/10 04:28:37;;;;;;;4.88;1.55;;;20.90;99.90;;;;;;5053617;28;20025;-68
2022/05/10 04:31:05;;;;;;;5.75;1.65;;;20.90;99.90;;;;;;5050938;28;20033;-68
2022/05/10 04:33:33;;;;;;;5.57;1.38;;;21.00;99.90;;;;;;5051251;28;20484;-68
2022/05/10 04:36:00;;;;;;;7.18;1.60;;;20.90;99.90;;;;;;5047920;28;20096;-68
2022/05/10 04:38:27;;;;;;;2.95;1.50;;;20.90;99.90;;;;;;5056679;28;20041;-68
2022/05/10 04:43:40;;;;;;;8.65;2.92;;;21.10;99.90;;;;;;5050283;28;20487;-68
2022/05/10 04:46:07;;;;;;;8.30;2.83;;;21.10;99.90;;;;;;5064507;28;20439;-69
2022/05/10 04:48:34;;;;;;;5.95;2.13;;;21.30;99.90;;;;;;5068879;28;20021;-67
2022/05/10 04:51:02;;;;;;;3.97;1.35;;;21.70;99.90;;;;;;5069623;28;20032;-68
2022/05/10 04:53:30;;;;;;;4.93;1.27;;;21.80;99.90;;;;;;5062931;28;20108;-69
2022/05/10 04:55:57;;;;;;;6.53;1.25;;;21.80;99.90;;;;;;5051170;28;20375;-69
2022/05/10 04:58:24;;;;;;;7.30;1.13;;;21.70;99.90;;;;;;5050414;28;20691;-69
2022/05/10 05:00:51;;;;;;;9.10;1.85;;;21.50;99.90;;;;;;5053150;28;20086;-68
2022/05/10 05:03:18;;;;;;;4.43;1.58;;;21.40;99.90;;;;;;5047546;28;20036;-68
2022/05/10 05:05:45;;;;;;;6.50;1.20;;;21.30;99.90;;;;;;5057445;28;20021;-68
2022/05/10 05:08:12;;;;;;;6.13;1.73;;;21.30;99.90;;;;;;5053579;28;20474;-69
2022/05/10 05:10:39;;;;;;;4.68;1.55;;;21.30;99.90;;;;;;5062478;28;20073;-70
2022/05/10 05:13:06;;;;;;;5.40;2.45;;;21.20;99.90;;;;;;5042667;28;20368;-70
2022/05/10 05:15:33;;;;;;;8.30;2.22;;;21.20;99.90;;;;;;5057125;28;20017;-69
2022/05/10 05:18:03;;;;;;;6.97;1.60;;;21.10;99.90;;;;;;5052555;28;20480;-68
2022/05/10 05:20:31;;;;;;;5.53;1.42;;;21.10;99.90;;;;;;5046241;28;20036;-69
2022/05/10 05:22:58;;;;;;;6.72;1.70;;;21.10;99.90;;;;;;5053770;28;20032;-67
2022/05/10 05:25:26;;;;;;;6.47;1.17;;;21.00;99.90;;;;;;5053906;28;20024;-67
2022/05/10 05:27:53;;;;;;;6.05;1.38;;;21.00;99.90;;;;;;5054358;28;20025;-66
2022/05/10 05:30:20;;;;;;;6.25;1.27;;;21.00;99.90;;;;;;5058636;28;20021;-67
2022/05/10 05:32:47;;;;;;;4.10;1.30;;;21.50;99.90;;;;;;5055582;28;20388;-69
2022/05/10 05:35:14;;;;;;;4.68;1.25;;;21.90;99.90;;;;;;5053589;28;20013;-71
2022/05/10 05:37:41;;;;;;;5.45;1.77;;;21.70;99.90;;;;;;5055758;28;20048;-70
2022/05/10 05:40:11;;;;;;;4.13;0.95;;;21.50;99.90;;;;;;5052119;28;20021;-73
2022/05/10 05:42:39;;;;;;;3.67;0.73;;;21.50;99.90;;;;;;5062416;28;20471;-73
2022/05/10 05:45:07;;;;;;;6.28;1.10;;;21.30;99.90;;;;;;5054531;28;20027;-72
2022/05/10 05:47:34;;;;;;;6.90;1.67;;;21.50;99.90;;;;;;5068388;28;20089;-74
2022/05/10 05:50:02;;;;;;;6.30;1.27;;;21.80;99.90;;;;;;5053001;28;20529;-70
2022/05/10 05:52:29;;;;;;;5.35;1.17;;;21.80;99.90;;;;;;5050100;28;20546;-68
2022/05/10 05:54:56;;;;;;;4.15;1.38;;;21.40;99.90;;;;;;5049630;28;20052;-71
2022/05/10 05:57:23;;;;;;;4.45;1.33;;;21.10;99.90;;;;;;5053824;28;20491;-73
2022/05/10 05:59:54;;;;;;;5.45;1.27;;;20.80;99.90;;;;;;5056959;28;20036;-73
2022/05/10 06:02:23;;;;;;;4.28;1.35;;;20.60;99.90;;;;;;5053085;28;20361;-71
2022/05/10 06:04:50;;;;;;;3.28;1.00;;;20.40;99.90;;;;;;5047740;28;20389;-72
2022/05/10 06:07:17;;;;;;;9.30;1.63;;;20.30;99.90;;;;;;5064269;28;20025;-67
2022/05/10 06:09:46;;;;;;;3.95;1.15;;;20.10;99.90;;;;;;5061626;28;20060;-69
2022/05/10 06:12:17;;;;;;;6.45;1.65;;;20.10;99.90;;;;;;5052344;28;20025;-67
2022/05/10 06:14:45;;;;;;;3.72;1.17;;;20.10;99.90;;;;;;5046740;28;20537;-69
2022/05/10 06:17:13;;;;;;;6.22;1.50;;;20.00;99.90;;;;;;5064343;28;20024;-70
2022/05/10 06:19:41;;;;;;;4.68;1.15;;;19.90;99.90;;;;;;5070782;28;20499;-67
2022/05/10 06:22:10;;;;;;;8.60;1.50;;;19.80;99.90;;;;;;5049346;28;20052;-67
2022/05/10 06:24:37;;;;;;;5.90;1.38;;;19.80;99.90;;;;;;5046999;28;20346;-68
2022/05/10 06:27:07;;;;;;;2.95;1.25;;;19.70;99.90;;;;;;5048026;28;20039;-70
2022/05/10 06:29:35;;;;;;;6.05;1.55;;;19.70;99.90;;;;;;5053043;28;20339;-67
2022/05/10 06:32:02;;;;;;;4.30;1.38;;;19.90;99.90;;;;;;5053502;28;20056;-67
2022/05/10 06:34:29;;;;;;;4.53;1.13;;;20.00;99.90;;;;;;5050038;28;20028;-67
2022/05/10 06:36:56;;;;;;;5.88;2.20;;;19.90;99.90;;;;;;5055070;28;20025;-68
2022/05/10 06:39:23;;;;;;;5.85;1.40;;;19.80;99.90;;;;;;5054144;28;20029;-71
2022/05/10 06:41:50;;;;;;;3.33;1.40;;;19.60;99.90;;;;;;5051709;28;20407;-68
2022/05/10 06:44:17;;;;;;;4.65;1.35;;;19.50;99.90;;;;;;5055860;28;20438;-70
2022/05/10 06:46:44;;;;;;;7.85;1.00;;;19.40;99.90;;;;;;5049824;28;20040;-68
2022/05/10 06:49:11;;;;;;;4.80;0.90;;;19.30;99.90;;;;;;5052268;28;20082;-71
2022/05/10 06:51:40;;;;;;;7.38;1.67;;;19.20;99.90;;;;;;5050956;28;20103;-70
2022/05/10 06:54:07;;;;;;;5.28;1.33;;;19.10;99.90;;;;;;5056937;28;20032;-72
2022/05/10 06:56:34;;;;;;;5.07;1.08;;;19.00;99.90;;;;;;5049650;28;20036;-67
2022/05/10 06:59:01;;;;;;;6.10;1.15;;;18.90;99.90;;;;;;5047570;28;20025;-68
2022/05/10 07:01:28;;;;;;;3.33;1.20;;;18.90;99.90;;;;;;5050996;28;20075;-69
2022/05/10 07:03:55;;;;;;;7.30;1.38;;;18.80;99.90;;;;;;5056028;28;20060;-69
2022/05/10 07:06:23;;;;;;;4.07;1.10;;;18.80;99.90;;;;;;5045392;28;20029;-69
2022/05/10 07:08:50;;;;;;;9.45;1.30;;;18.60;99.90;;;;;;5053038;28;20025;-70
2022/05/10 07:11:17;;;;;;;6.50;1.10;;;18.60;99.90;;;;;;5032713;28;20434;-70
2022/05/10 07:13:44;;;;;;;6.75;1.25;;;18.60;99.90;;;;;;5038816;28;20136;-69
2022/05/10 07:16:11;;;;;;;3.95;1.27;;;18.50;99.90;;;;;;5055092;28;20021;-74
2022/05/10 07:18:38;;;;;;;3.42;1.23;;;18.50;99.90;;;;;;5051059;28;20027;-72
2022/05/10 07:21:06;;;;;;;6.00;1.73;;;18.40;99.90;;;;;;5041218;28;20055;-72
2022/05/10 07:23:33;;;;;;;3.72;1.63;;;18.30;99.90;;;;;;5050688;28;20104;-73
2022/05/10 07:26:00;;;;;;;5.15;1.23;;;18.30;99.90;;;;;;5051618;28;20067;-71
2022/05/10 07:28:30;;;;;;;4.78;1.38;;;18.30;99.90;;;;;;5050894;28;20028;-76
2022/05/10 07:30:58;;;;;;;3.53;1.25;;;18.20;99.90;;;;;;5054136;28;20320;-70
2022/05/10 07:33:27;;;;;;;7.55;1.75;;;18.20;99.90;;;;;;5041857;28;20021;-68
2022/05/10 07:38:43;;;;;;;3.15;0.95;;;18.10;99.90;;;;;;5053785;28;20039;-79
2022/05/10 07:41:14;;;;;;;3.45;1.05;;;18.10;99.90;;;;;;5047316;28;20395;-73
2022/05/10 07:43:41;;;;;;;5.93;1.40;;;18.00;99.90;;;;;;5050172;28;20249;-71
2022/05/10 07:46:08;;;;;;;6.22;1.08;;;17.90;99.90;;;;;;5028543;28;20078;-72
2022/05/10 07:48:35;;;;;;;5.47;1.45;;;17.90;99.90;;;;;;5051079;28;20017;-70
2022/05/10 07:51:03;;;;;;;7.22;1.63;;;17.90;99.90;;;;;;5055473;28;20482;-65
2022/05/10 07:53:35;;;;;;;6.18;1.50;;;17.90;99.90;;;;;;5058183;28;20028;-67
2022/05/10 07:56:03;;;;;;;8.80;1.50;;;17.80;99.90;;;;;;5055264;28;20044;-65
2022/05/10 07:58:32;;;;;;;4.60;1.20;;;17.80;99.90;;;;;;5051130;28;20632;-71
2022/05/10 08:00:59;;;;;;;6.97;1.30;;;17.70;99.90;;;;;;5060908;28;20053;-64
2022/05/10 08:03:27;;;;;;;4.43;1.42;;;17.70;99.90;;;;;;5053904;28;20017;-68
2022/05/10 08:05:55;;;;;;;5.53;1.42;;;17.70;99.90;;;;;;5052912;28;20041;-67
2022/05/10 08:08:23;;;;;;;7.00;1.55;;;17.60;99.90;;;;;;5052839;28;20059;-65
2022/05/10 08:10:53;;;;;;;4.25;1.20;;;17.60;99.90;;;;;;5058224;28;20036;-66
2022/05/10 08:13:25;;;;;;;2.95;1.13;;;17.40;99.90;;;;;;5061427;28;20023;-67
2022/05/10 08:15:54;;;;;;;6.70;2.55;;;17.40;99.90;;;;;;5051151;28;20040;-65
2022/05/10 08:18:22;;;;;;;4.93;1.77;;;17.30;99.90;;;;;;5065041;28;20032;-63
2022/05/10 08:20:51;;;;;;;4.25;1.50;;;17.20;99.90;;;;;;5059111;28;20021;-63
2022/05/10 08:23:24;;;;;;;4.75;1.45;;;17.10;99.90;;;;;;5060328;28;20491;-63
2022/05/10 08:25:54;;;;;;;6.30;1.42;;;17.00;99.90;;;;;;5038047;28;20463;-63
2022/05/10 08:28:25;;;;;;;4.55;1.33;;;16.90;99.90;;;;;;5054089;28;20483;-63
2022/05/10 08:30:52;;;;;;;5.25;1.33;;;16.80;99.90;;;;;;5058528;28;20079;-68
2022/05/10 08:33:28;;;;;;;4.00;1.27;;;16.70;99.90;;;;;;5061431;28;20029;-63
2022/05/10 08:35:56;;;;;;;5.70;1.30;;;16.60;99.90;;;;;;5066321;28;20027;-63
2022/05/10 08:38:25;;;;;;;5.75;1.70;;;16.60;99.90;;;;;;5061744;28;20047;-63
2022/05/10 08:40:57;;;;;;;9.20;2.70;;;16.50;99.90;;;;;;5054899;28;20499;-63
2022/05/10 08:43:30;;;;;;;8.05;3.10;;;16.50;99.90;;;;;;5062875;28;20025;-63
2022/05/10 08:45:58;;;;;;;5.78;1.77;;;16.40;99.90;;;;;;5064200;28;20055;-70
2022/05/10 08:48:28;;;;;;;6.20;1.92;;;16.30;99.90;;;;;;5053745;28;20458;-63
2022/05/10 08:50:57;;;;;;;5.97;1.55;;;16.30;99.90;;;;;;5058045;28;20037;-68
2022/05/10 08:53:24;;;;;;;3.83;2.15;;;16.30;99.90;;;;;;5060738;28;20405;-69
2022/05/10 08:56:03;;;;;;;5.57;1.50;;;16.30;99.90;;;;;;5053062;28;20081;-68
2022/05/10 08:58:56;;;;;;;7.45;1.98;;;16.30;99.90;;;;;;5059617;28;20138;-66
2022/05/10 09:01:27;;;;;;;7.20;2.30;;;16.20;99.90;;;;;;5043349;28;20329;-68
2022/05/10 09:04:19;;;;;;;9.85;2.78;;;16.20;99.90;;;;;;5063007;28;20050;-65
2022/05/10 09:07:12;;;;;;;7.25;1.95;;;16.00;99.90;;;;;;5058369;28;20040;-65
2022/05/10 09:09:49;;;;;;;11.40;2.28;;;16.00;99.90;;;;;;5063617;28;20031;-68
2022/05/10 09:12:24;;;;;;;5.40;1.73;;;15.90;99.90;;;;;;5049581;28;20081;-64
2022/05/10 09:15:06;;;;;;;7.90;1.70;;;16.00;99.90;;;;;;5056909;28;20143;-65
2022/05/10 09:17:39;;;;;;;9.10;2.30;;;16.00;99.90;;;;;;5053234;28;20373;-66
2022/05/10 09:20:09;;;;;;;6.68;2.30;;;16.00;99.90;;;;;;5049881;28;20024;-67
2022/05/10 09:22:46;;;;;;;5.30;1.95;;;16.00;99.90;;;;;;5038605;28;20459;-67
2022/05/10 09:25:25;;;;;;;4.38;1.85;;;15.90;99.90;;;;;;5054248;28;20378;-64
2022/05/10 09:27:54;;;;;;;4.53;1.58;;;15.70;99.90;;;;;;5057637;28;20392;-63
2022/05/10 09:30:35;;;;;;;9.40;1.90;;;15.60;99.90;;;;;;5049893;28;20025;-66
2022/05/10 09:36:10;;;;;;;4.95;1.80;;;15.40;99.90;;;;;;5054588;28;20099;-64
2022/05/10 09:38:48;;;;;;;7.68;2.30;;;15.30;99.90;;;;;;5055750;28;20032;-66
2022/05/10 09:41:34;;;;;;;10.80;2.33;;;15.20;99.90;;;;;;5053743;28;20028;-65
2022/05/10 09:44:21;;;;;;;7.60;1.85;;;15.10;99.90;;;;;;5053371;28;20071;-63
2022/05/10 09:46:49;;;;;;;3.60;1.85;;;15.10;99.90;;;;;;5054078;28;20021;-64
2022/05/10 09:49:37;;;;;;;5.47;1.95;;;15.10;99.90;;;;;;5056528;28;20024;-67
2022/05/10 09:52:05;;;;;;;5.65;1.83;;;15.00;99.90;;;;;;5052796;28;20032;-63
2022/05/10 09:54:41;;;;;;;5.85;2.38;;;15.00;99.90;;;;;;5058082;28;20070;-63
2022/05/10 09:57:33;;;;;;;5.55;2.58;;;15.00;99.90;;;;;;5055208;28;20074;-64
2022/05/10 10:00:01;;;;;;;7.68;2.38;;;14.90;99.90;;;;;;5069508;28;20114;-68
2022/05/10 10:02:31;;;;;;;4.57;2.13;;;14.80;99.90;;;;;;5046177;28;20415;-71
2022/05/10 10:04:59;;;;;;;5.60;2.10;;;14.70;99.90;;;;;;5065080;28;20308;-67
2022/05/10 10:07:28;;;;;;;6.20;2.05;;;14.70;99.90;;;;;;5054316;28;20063;-65
2022/05/10 10:10:15;;;;;;;7.35;1.90;;;14.70;99.90;;;;;;5061165;28;20029;-65
2022/05/10 10:12:44;;;;;;;7.35;2.20;;;14.60;99.90;;;;;;5045301;28;20024;-70
2022/05/10 10:15:43;;;;;;;4.85;2.03;;;14.70;99.90;;;;;;5056914;28;20064;-67
2022/05/10 10:18:33;;;;;;;7.20;1.95;;;14.60;99.90;;;;;;5043331;28;20503;-67
2022/05/10 10:21:02;;;;;;;7.07;1.70;;;14.60;99.90;;;;;;5060149;28;20060;-68
2022/05/10 10:23:41;;;;;;;5.82;2.10;;;14.50;99.90;;;;;;5054262;28;20063;-70
2022/05/10 10:26:38;;;;;;;5.22;1.65;;;14.50;99.90;;;;;;5054818;28;20029;-68
2022/05/10 10:29:17;;;;;;;9.32;2.92;;;14.50;99.90;;;;;;5009117;28;20037;-69
2022/05/10 10:31:54;;;;;;;7.68;2.38;;;14.40;99.90;;;;;;5009514;28;20358;-66
2022/05/10 10:34:41;;;;;;;6.80;2.50;;;14.40;99.90;;;;;;5010972;28;20042;-67
2022/05/10 10:37:21;;;;;;;7.78;3.88;;;14.30;99.90;;;;;;5053743;22;20170;-67
2022/05/10 10:40:17;;;;;;;4.82;2.42;;;14.30;99.90;;;;;;5057275;28;20526;-67
2022/05/10 10:42:51;;;;;;;9.40;2.70;;;14.30;99.90;;;;;;5051745;28;20037;-67
2022/05/10 10:45:37;;;;;;;10.10;2.95;;;14.20;99.90;;;;;;5055069;28;20392;-69
2022/05/10 10:48:28;;;;;;;5.03;2.65;;;14.20;99.90;;;;;;5066947;28;20366;-67
2022/05/10 10:50:57;;;;;;;5.50;2.25;;;14.20;99.90;;;;;;5059902;28;20024;-68
2022/05/10 10:53:26;;;;;;;9.20;5.70;;;14.20;99.90;;;;;;5068506;28;20060;-66
2022/05/10 10:56:21;;;;;;;7.85;3.90;;;14.20;99.90;;;;;;5060539;28;20025;-66
2022/05/10 10:59:05;;;;;;;5.05;2.35;;;14.10;99.90;;;;;;5059444;28;20500;-68
2022/05/10 11:01:56;;;;;;;5.72;2.65;;;14.10;99.90;;;;;;5059159;28;20025;-66
2022/05/10 11:04:44;;;;;;;7.20;2.85;;;14.00;99.90;;;;;;5065032;28;20281;-67
2022/05/10 11:07:31;;;;;;;6.22;3.17;;;14.00;99.90;;;;;;5055904;28;20045;-66
2022/05/10 11:10:12;;;;;;;7.53;3.10;;;14.00;99.90;;;;;;5058690;28;20028;-70
2022/05/10 11:13:16;;;;;;;5.70;2.63;;;14.00;99.90;;;;;;5068628;28;20036;-66
2022/05/10 11:16:14;;;;;;;4.82;2.55;;;14.00;99.90;;;;;;5059846;28;20024;-67
2022/05/10 11:19:04;;;;;;;3.90;2.58;;;14.00;99.90;;;;;;5057574;28;20067;-68
2022/05/10 11:21:31;;;;;;;4.47;2.70;;;13.90;99.90;;;;;;5059773;28;20051;-66
2022/05/10 11:24:32;;;;;;;6.45;3.00;;;13.90;99.90;;;;;;5043713;28;20310;-66
2022/05/10 11:27:23;;;;;;;9.75;2.92;;;14.00;99.90;;;;;;5064808;28;20450;-70
2022/05/10 11:30:01;;;;;;;4.57;2.20;;;13.90;99.90;;;;;;5062161;28;20040;-66
2022/05/10 11:32:43;;;;;;;10.18;2.60;;;14.00;99.90;;;;;;5057758;28;20120;-66
2022/05/10 11:35:38;;;;;;;6.82;2.38;;;14.10;99.90;;;;;;5063338;28;20036;-67
2022/05/10 11:38:14;;;;;;;4.68;2.38;;;14.10;99.90;;;;;;5054080;28;20434;-68
2022/05/10 11:41:06;;;;;;;4.93;2.60;;;14.10;99.90;;;;;;5056393;28;20028;-68
2022/05/10 11:44:03;;;;;;;7.20;2.40;;;14.20;99.90;;;;;;5056014;28;20028;-70
2022/05/10 11:46:52;;;;;;;7.07;2.95;;;14.30;99.90;;;;;;5053657;28;20032;-66
2022/05/10 11:49:30;;;;;;;6.32;2.60;;;14.40;99.90;;;;;;5053312;28;20029;-65
2022/05/10 11:52:17;;;;;;;5.70;2.55;;;14.40;99.90;;;;;;5054504;28;20118;-66
2022/05/10 11:55:24;;;;;;;5.55;2.42;;;14.50;99.90;;;;;;5057333;28;20057;-66
2022/05/10 11:57:59;;;;;;;5.88;2.45;;;14.50;99.90;;;;;;4986119;28;20034;-66
2022/05/10 12:00:32;;;;;;;5.07;2.15;;;14.60;99.90;;;;;;4993201;28;20445;-68
2022/05/10 12:03:03;;;;;;;4.93;1.98;;;14.60;99.90;;;;;;4994287;28;20045;-69
2022/05/10 12:05:35;;;;;;;5.13;2.45;;;14.70;99.90;;;;;;4988988;28;20038;-69
2022/05/10 12:08:27;;;;;;;3.33;1.80;;;14.80;99.90;;;;;;4993994;28;20425;-67
2022/05/10 12:10:54;;;;;;;6.13;2.43;;;14.70;99.90;;;;;;4992381;28;20409;-67
2022/05/10 12:22:49;;;;;;;9.43;2.40;;;14.90;99.90;;;;;;4991882;28;20049;-65
2022/05/10 12:26:00;;;;;;;5.72;2.00;;;15.00;99.90;;;;;;4998234;28;20064;-64
2022/05/10 12:28:47;;;;;;;6.68;2.42;;;15.10;99.90;;;;;;4988285;28;20549;-66
2022/05/10 12:31:35;;;;;;;9.98;2.63;;;15.20;99.90;;;;;;4991172;28;20045;-66
2022/05/10 12:34:12;;;;;;;7.90;2.33;;;15.20;99.90;;;;;;4992988;28;20034;-68
2022/05/10 12:36:41;;;;;;;5.10;2.10;;;15.20;99.90;;;;;;5061360;28;20120;-67
2022/05/10 12:39:30;;;;;;;5.90;2.25;;;15.30;99.90;;;;;;5064153;28;20915;-68
2022/05/10 12:42:02;;;;;;;5.28;1.80;;;15.20;99.90;;;;;;5056737;28;20286;-67
2022/05/10 12:45:16;;;;;;;7.53;2.25;;;15.20;99.90;;;;;;5057763;28;20453;-65
2022/05/10 12:48:15;;;;;;;7.03;2.25;;;15.10;99.90;;;;;;5063523;28;20029;-66
2022/05/10 12:51:00;;;;;;;4.35;1.85;;;15.20;99.90;;;;;;4999052;28;20068;-72
2022/05/10 12:53:38;;;;;;;6.50;1.75;;;15.30;99.90;;;;;;5015174;28;20038;-69
2022/05/10 12:56:16;;;;;;;6.07;2.53;;;15.20;99.90;;;;;;5003782;28;20037;-72
2022/05/10 12:58:48;;;;;;;7.38;2.03;;;15.20;99.90;;;;;;5009209;28;20022;-72
2022/05/10 13:01:18;;;;;;;3.58;1.88;;;15.30;99.90;;;;;;5006037;28;20038;-67
2022/05/10 13:03:51;;;;;;;3.80;1.75;;;15.30;99.90;;;;;;5014617;28;20029;-66
2022/05/10 13:06:38;;;;;;;7.65;1.98;;;15.20;99.90;;;;;;5011317;28;20026;-67
2022/05/10 13:09:31;;;;;;;7.18;2.53;;;15.20;99.90;;;;;;5010313;28;20041;-68
2022/05/10 13:12:09;;;;;;;4.60;1.52;;;15.10;99.90;;;;;;5012966;28;20485;-67
2022/05/10 13:14:46;;;;;;;4.68;1.95;;;15.10;99.90;;;;;;5019723;28;20026;-68
2022/05/10 13:17:35;;;;;;;3.47;1.77;;;15.20;99.90;;;;;;5004510;28;20790;-66
2022/05/10 13:20:12;;;;;;;9.90;3.28;;;15.10;99.90;;;;;;5011049;28;20087;-67
2022/05/10 13:22:52;;;;;;;7.15;2.65;;;15.20;99.90;;;;;;5010963;28;20120;-68
2022/05/10 13:25:30;;;;;;;11.30;3.35;;;15.20;99.90;;;;;;5016330;28;20038;-67
2022/05/10 13:28:19;;;;;;;8.77;3.17;;;15.30;99.90;;;;;;5044217;28;20133;-67
2022/05/10 13:30:49;;;;;;;7.53;3.40;;;15.20;99.90;;;;;;5060771;28;20024;-67
2022/05/10 13:33:42;;;;;;;11.40;3.53;;;15.30;99.90;;;;;;5052332;28;20115;-69
2022/05/10 13:36:13;;;;;;;9.70;4.13;;;15.30;99.90;;;;;;5057747;28;20041;-68
2022/05/10 13:38:56;;;;;;;9.00;3.30;;;15.30;99.90;;;;;;5065415;28;20044;-67
2022/05/10 13:41:32;;;;;;;7.07;2.58;;;15.40;99.90;;;;;;5063219;28;20024;-73
2022/05/10 13:44:22;;;;;;;3.60;2.25;;;15.40;99.90;;;;;;5071375;28;20025;-69
2022/05/10 13:47:02;;;;;;;6.70;2.60;;;15.40;99.90;;;;;;5054352;28;20103;-69